createdAt,value
2022-09-15T00:00:58.088Z,99577.00
2022-09-15T00:03:24.858Z,99580.84
2022-09-15T00:05:52.739Z,99571.72
2022-09-15T00:08:19.166Z,99573.50
2022-09-15T00:10:49.909Z,99577.66
2022-09-15T00:13:16.989Z,99570.66
2022-09-15T00:15:43.409Z,99572.69
2022-09-15T00:18:10.092Z,99579.28
2022-09-15T00:20:39.723Z,99585.25
2022-09-15T00:23:06.157Z,99581.81
2022-09-15T00:25:32.649Z,99570.03
2022-09-15T00:27:59.546Z,99572.38
2022-09-15T00:30:26.031Z,99565.84
2022-09-15T00:32:52.642Z,99558.94
2022-09-15T00:35:19.166Z,99556.53
2022-09-15T00:37:45.614Z,99559.94
2022-09-15T00:40:12.181Z,99557.22
2022-09-15T00:42:38.650Z,99552.25
2022-09-15T00:45:05.462Z,99553.81
2022-09-15T00:47:35.208Z,99545.81
2022-09-15T00:50:11.024Z,99557.25
2022-09-15T00:52:44.175Z,99548.28
2022-09-15T00:55:23.836Z,99558.38
2022-09-15T00:57:59.696Z,99541.41
2022-09-15T01:00:30.341Z,99548.88
2022-09-15T01:02:57.305Z,99545.50
2022-09-15T01:05:26.688Z,99554.13
2022-09-15T01:08:01.730Z,99554.13
2022-09-15T01:10:30.246Z,99556.13
2022-09-15T01:12:57.865Z,99559.53
2022-09-15T01:15:27.096Z,99549.13
2022-09-15T01:18:02.606Z,99547.97
2022-09-15T01:20:29.288Z,99553.72
2022-09-15T01:23:22.176Z,99557.25
2022-09-15T01:26:04.435Z,99554.78
2022-09-15T01:28:36.999Z,99553.66
2022-09-15T01:31:03.441Z,99555.03
2022-09-15T01:33:32.883Z,99542.81
2022-09-15T01:36:11.321Z,99546.69
2022-09-15T01:38:42.544Z,99542.81
2022-09-15T01:41:25.287Z,99536.72
2022-09-15T01:43:51.834Z,99541.47
2022-09-15T01:46:20.045Z,99536.91
2022-09-15T01:48:47.970Z,99538.53
2022-09-15T01:51:16.445Z,99543.03
2022-09-15T01:53:43.330Z,99545.06
2022-09-15T01:56:10.944Z,99544.41
2022-09-15T01:58:38.745Z,99546.44
2022-09-15T02:01:18.049Z,99540.81
2022-09-15T02:03:48.794Z,99536.03
2022-09-15T02:06:33.752Z,99534.22
2022-09-15T02:09:02.961Z,99534.22
2022-09-15T02:11:30.343Z,99525.63
2022-09-15T02:13:56.829Z,99534.47
2022-09-15T02:16:30.188Z,99526.50
2022-09-15T02:18:58.063Z,99528.69
2022-09-15T02:21:29.795Z,99519.38
2022-09-15T02:24:03.404Z,99526.41
2022-09-15T02:26:32.180Z,99534.22
2022-09-15T02:28:59.931Z,99524.94
2022-09-15T02:31:27.046Z,99519.91
2022-09-15T02:33:57.378Z,99519.56
2022-09-15T02:36:25.196Z,99529.63
2022-09-15T02:38:58.126Z,99535.03
2022-09-15T02:41:24.594Z,99523.72
2022-09-15T02:43:51.227Z,99525.56
2022-09-15T02:46:19.319Z,99532.81
2022-09-15T02:48:45.853Z,99530.09
2022-09-15T02:51:12.409Z,99532.59
2022-09-15T02:53:38.875Z,99531.56
2022-09-15T02:56:06.549Z,99529.47
2022-09-15T02:58:33.409Z,99529.59
2022-09-15T03:01:06.624Z,99526.75
2022-09-15T03:03:33.578Z,99530.31
2022-09-15T03:06:16.378Z,99533.50
2022-09-15T03:08:51.225Z,99535.56
2022-09-15T03:11:19.263Z,99540.31
2022-09-15T03:13:46.315Z,99536.53
2022-09-15T03:16:14.285Z,99537.81
2022-09-15T03:18:41.376Z,99543.91
2022-09-15T03:21:08.961Z,99538.47
2022-09-15T03:23:36.047Z,99546.41
2022-09-15T03:26:03.253Z,99548.94
2022-09-15T03:28:29.968Z,99541.56
2022-09-15T03:30:56.423Z,99547.13
2022-09-15T03:33:23.557Z,99544.09
2022-09-15T03:35:50.716Z,99543.34
2022-09-15T03:38:17.657Z,99538.00
2022-09-15T03:40:44.245Z,99542.00
2022-09-15T03:43:14.282Z,99546.28
2022-09-15T03:45:43.178Z,99542.19
2022-09-15T03:48:09.645Z,99543.97
2022-09-15T03:50:36.245Z,99533.44
2022-09-15T03:53:02.871Z,99537.31
2022-09-15T03:55:29.441Z,99545.22
2022-09-15T03:57:55.879Z,99548.53
2022-09-15T04:00:22.814Z,99545.88
2022-09-15T04:02:49.284Z,99549.28
2022-09-15T04:05:15.944Z,99552.72
2022-09-15T04:07:42.476Z,99565.41
2022-09-15T04:10:09.745Z,99579.09
2022-09-15T04:12:36.378Z,99590.97
2022-09-15T04:15:04.003Z,99580.53
2022-09-15T04:17:30.525Z,99582.53
2022-09-15T04:19:57.038Z,99576.38
2022-09-15T04:22:23.885Z,99584.53
2022-09-15T04:24:50.375Z,99588.66
2022-09-15T04:27:17.187Z,99594.44
2022-09-15T04:29:43.971Z,99595.00
2022-09-15T04:32:10.621Z,99587.22
2022-09-15T04:34:41.224Z,99587.69
2022-09-15T04:37:07.946Z,99593.59
2022-09-15T04:39:34.583Z,99596.28
2022-09-15T04:42:05.097Z,99601.84
2022-09-15T04:44:32.318Z,99600.03
2022-09-15T04:46:59.393Z,99596.75
2022-09-15T04:49:25.910Z,99584.56
2022-09-15T04:51:53.733Z,99598.16
2022-09-15T04:54:20.535Z,99601.47
2022-09-15T04:56:47.396Z,99597.25
2022-09-15T04:59:15.355Z,99602.97
2022-09-15T05:01:42.110Z,99606.16
2022-09-15T05:04:08.589Z,99605.78
2022-09-15T05:06:35.350Z,99606.94
2022-09-15T05:09:05.408Z,99605.38
2022-09-15T05:11:35.753Z,99613.16
2022-09-15T05:14:02.197Z,99622.03
2022-09-15T05:16:29.506Z,99617.50
2022-09-15T05:18:59.041Z,99616.28
2022-09-15T05:21:26.119Z,99630.03
2022-09-15T05:23:52.794Z,99629.72
2022-09-15T05:26:21.487Z,99632.19
2022-09-15T05:28:48.088Z,99643.06
2022-09-15T05:31:22.045Z,99647.41
2022-09-15T05:33:49.338Z,99649.47
2022-09-15T05:36:17.333Z,99648.69
2022-09-15T05:38:44.111Z,99644.72
2022-09-15T05:41:12.115Z,99656.06
2022-09-15T05:43:39.527Z,99658.31
2022-09-15T05:46:06.699Z,99665.66
2022-09-15T05:48:34.038Z,99673.78
2022-09-15T05:51:00.634Z,99680.78
2022-09-15T05:53:27.138Z,99685.41
2022-09-15T05:55:57.457Z,99683.66
2022-09-15T05:58:24.248Z,99693.84
2022-09-15T06:00:50.996Z,99687.94
2022-09-15T06:03:17.551Z,99698.16
2022-09-15T06:05:44.072Z,99688.75
2022-09-15T06:08:10.931Z,99694.69
2022-09-15T06:10:37.445Z,99693.41
2022-09-15T06:13:03.940Z,99697.88
2022-09-15T06:15:30.933Z,99702.16
2022-09-15T06:17:57.519Z,99702.00
2022-09-15T06:20:25.429Z,99699.47
2022-09-15T06:22:52.966Z,99703.44
2022-09-15T06:25:19.570Z,99705.66
2022-09-15T06:27:48.841Z,99708.03
2022-09-15T06:30:15.481Z,99710.44
2022-09-15T06:32:45.154Z,99721.59
2022-09-15T06:35:15.156Z,99714.75
2022-09-15T06:37:41.689Z,99719.34
2022-09-15T06:40:08.525Z,99731.63
2022-09-15T06:42:35.036Z,99731.31
2022-09-15T06:45:01.820Z,99735.78
2022-09-15T06:47:33.760Z,99746.16
2022-09-15T06:50:00.723Z,99750.91
2022-09-15T06:52:27.294Z,99752.19
2022-09-15T06:54:53.777Z,99753.94
2022-09-15T06:57:20.330Z,99760.31
2022-09-15T06:59:48.378Z,99776.19
2022-09-15T07:02:15.086Z,99777.63
2022-09-15T07:04:41.701Z,99780.16
2022-09-15T07:07:08.527Z,99776.19
2022-09-15T07:09:35.064Z,99776.25
2022-09-15T07:12:01.796Z,99782.63
2022-09-15T07:14:28.352Z,99789.00
2022-09-15T07:16:54.852Z,99791.72
2022-09-15T07:19:21.404Z,99789.47
2022-09-15T07:21:47.941Z,99798.25
2022-09-15T07:24:14.948Z,99797.94
2022-09-15T07:26:41.968Z,99801.44
2022-09-15T07:29:09.713Z,99804.63
2022-09-15T07:31:36.889Z,99803.63
2022-09-15T07:34:04.085Z,99807.44
2022-09-15T07:36:31.000Z,99807.13
2022-09-15T07:38:57.526Z,99802.94
2022-09-15T07:41:25.444Z,99803.19
2022-09-15T07:43:52.957Z,99806.38
2022-09-15T07:46:20.456Z,99809.09
2022-09-15T07:48:47.761Z,99821.34
2022-09-15T07:51:15.132Z,99819.41
2022-09-15T07:53:41.981Z,99822.41
2022-09-15T07:56:08.553Z,99822.78
2022-09-15T07:58:35.063Z,99823.50
2022-09-15T08:01:05.757Z,99826.28
2022-09-15T08:03:32.382Z,99827.06
2022-09-15T08:05:59.476Z,99824.19
2022-09-15T08:08:25.974Z,99827.16
2022-09-15T08:10:52.923Z,99827.47
2022-09-15T08:13:19.520Z,99834.63
2022-09-15T08:15:46.415Z,99833.16
2022-09-15T08:18:12.923Z,99837.00
2022-09-15T08:20:40.511Z,99834.56
2022-09-15T08:23:07.871Z,99832.09
2022-09-15T08:25:34.367Z,99830.00
2022-09-15T08:28:01.227Z,99838.69
2022-09-15T08:30:27.938Z,99835.75
2022-09-15T08:32:54.370Z,99840.69
2022-09-15T08:35:20.987Z,99837.09
2022-09-15T08:37:47.515Z,99844.00
2022-09-15T08:40:19.770Z,99854.56
2022-09-15T08:42:48.290Z,99849.03
2022-09-15T08:45:25.957Z,99863.94
2022-09-15T08:47:56.274Z,99866.13
2022-09-15T08:50:28.349Z,99861.50
2022-09-15T08:53:18.091Z,99851.13
2022-09-15T08:56:11.215Z,99853.56
2022-09-15T08:58:37.936Z,99854.72
2022-09-15T09:01:10.613Z,99859.09
2022-09-15T09:03:56.677Z,99860.09
2022-09-15T09:06:38.320Z,99871.38
2022-09-15T09:09:04.981Z,99874.75
2022-09-15T09:11:34.467Z,99870.69
2022-09-15T09:14:14.050Z,99866.50
2022-09-15T09:16:40.464Z,99862.81
2022-09-15T09:19:16.148Z,99863.69
2022-09-15T09:21:47.085Z,99869.44
2022-09-15T09:24:13.505Z,99868.97
2022-09-15T09:26:40.301Z,99872.47
2022-09-15T09:29:13.578Z,99876.78
2022-09-15T09:31:40.821Z,99873.88
2022-09-15T09:34:07.271Z,99883.44
2022-09-15T09:36:33.839Z,99882.78
2022-09-15T09:39:01.838Z,99885.94
2022-09-15T09:41:35.727Z,99888.56
2022-09-15T09:44:03.819Z,99893.88
2022-09-15T09:46:31.579Z,99888.88
2022-09-15T09:49:03.217Z,99892.88
2022-09-15T09:51:31.292Z,99891.47
2022-09-15T09:54:03.780Z,99887.16
2022-09-15T09:56:30.240Z,99882.91
2022-09-15T09:58:56.976Z,99885.84
2022-09-15T10:01:25.029Z,99891.78
2022-09-15T10:04:14.944Z,99887.50
2022-09-15T10:06:41.594Z,99885.94
2022-09-15T10:09:16.259Z,99890.25
2022-09-15T10:11:42.733Z,99893.22
2022-09-15T10:14:19.846Z,99896.84
2022-09-15T10:16:56.409Z,99898.75
2022-09-15T10:19:23.345Z,99894.31
2022-09-15T10:21:50.043Z,99909.09
2022-09-15T10:24:36.388Z,99911.22
2022-09-15T10:27:27.079Z,99916.31
2022-09-15T10:29:54.085Z,99913.41
2022-09-15T10:32:28.569Z,99911.84
2022-09-15T10:34:59.079Z,99916.38
2022-09-15T10:37:35.954Z,99922.72
2022-09-15T10:40:25.453Z,99925.63
2022-09-15T10:42:53.662Z,99930.03
2022-09-15T10:45:33.497Z,99935.09
2022-09-15T10:48:16.339Z,99925.63
2022-09-15T10:50:55.175Z,99921.84
2022-09-15T10:53:32.884Z,99927.22
2022-09-15T10:56:05.400Z,99925.31
2022-09-15T10:58:43.527Z,99921.22
2022-09-15T11:01:30.272Z,99931.66
2022-09-15T11:04:15.288Z,99915.78
2022-09-15T11:06:48.773Z,99919.53
2022-09-15T11:09:27.322Z,99907.84
2022-09-15T11:11:56.845Z,99901.50
2022-09-15T11:14:44.778Z,99903.84
2022-09-15T11:17:24.097Z,99911.16
2022-09-15T11:19:53.905Z,99892.56
2022-09-15T11:22:24.580Z,99892.31
2022-09-15T11:24:57.808Z,99889.66
2022-09-15T11:27:31.339Z,99897.69
2022-09-15T11:30:01.285Z,99895.44
2022-09-15T11:32:34.296Z,99901.88
2022-09-15T11:35:16.391Z,99903.59
2022-09-15T11:37:45.810Z,99905.03
2022-09-15T11:40:15.854Z,99897.50
2022-09-15T11:42:47.970Z,99899.66
2022-09-15T11:45:17.667Z,99904.06
2022-09-15T11:47:46.882Z,99891.91
2022-09-15T11:50:19.804Z,99884.84
2022-09-15T11:52:58.608Z,99890.53
2022-09-15T11:55:37.638Z,99900.19
2022-09-15T11:58:21.625Z,99889.78
2022-09-15T12:01:04.241Z,99906.09
2022-09-15T12:03:50.608Z,99892.50
2022-09-15T12:06:21.543Z,99893.75
2022-09-15T12:09:00.788Z,99899.25
2022-09-15T12:11:30.307Z,99899.25
2022-09-15T12:13:57.371Z,99890.63
2022-09-15T12:16:24.297Z,99888.06
2022-09-15T12:18:53.843Z,99896.50
2022-09-15T12:21:31.215Z,99892.06
2022-09-15T12:24:02.782Z,99889.72
2022-09-15T12:26:32.619Z,99895.97
2022-09-15T12:29:03.558Z,99904.94
2022-09-15T12:31:31.728Z,99901.59
2022-09-15T12:33:59.752Z,99897.25
2022-09-15T12:36:30.843Z,99897.41
2022-09-15T12:38:58.483Z,99906.66
2022-09-15T12:41:25.180Z,99904.75
2022-09-15T12:44:17.800Z,99907.94
2022-09-15T12:46:50.774Z,99922.59
2022-09-15T12:49:20.239Z,99921.88
2022-09-15T12:51:50.802Z,99934.03
2022-09-15T12:54:21.842Z,99932.78
2022-09-15T12:56:51.932Z,99931.97
2022-09-15T12:59:22.780Z,99930.81
2022-09-15T13:01:50.378Z,99936.44
2022-09-15T13:04:35.728Z,99932.28
2022-09-15T13:07:28.654Z,99938.06
2022-09-15T13:10:13.462Z,99921.94
2022-09-15T13:12:43.446Z,99937.09
2022-09-15T13:15:14.596Z,99938.06
2022-09-15T13:17:44.296Z,99930.91
2022-09-15T13:20:15.509Z,99927.41
2022-09-15T13:22:45.476Z,99932.38
2022-09-15T13:25:15.670Z,99934.25
2022-09-15T13:27:43.714Z,99928.09
2022-09-15T13:30:30.963Z,99937.59
2022-09-15T13:33:16.460Z,99934.44
2022-09-15T13:35:52.423Z,99936.97
2022-09-15T13:38:31.931Z,99936.47
2022-09-15T13:41:18.258Z,99931.25
2022-09-15T13:43:59.626Z,99934.13
2022-09-15T13:46:35.399Z,99938.84
2022-09-15T13:49:14.476Z,99925.94
2022-09-15T13:51:43.616Z,99923.72
2022-09-15T13:54:18.823Z,99933.28
2022-09-15T13:56:47.350Z,99934.72
2022-09-15T13:59:19.588Z,99928.75
2022-09-15T14:01:46.582Z,99929.47
2022-09-15T14:04:17.736Z,99929.13
2022-09-15T14:06:45.836Z,99926.25
2022-09-15T14:09:15.224Z,99917.91
2022-09-15T14:11:42.829Z,99925.75
2022-09-15T14:14:27.571Z,99920.56
2022-09-15T14:16:55.073Z,99923.44
2022-09-15T14:19:21.619Z,99921.13
2022-09-15T14:21:53.834Z,99918.59
2022-09-15T14:24:26.993Z,99928.25
2022-09-15T14:26:53.518Z,99926.50
2022-09-15T14:29:21.609Z,99921.91
2022-09-15T14:31:49.082Z,99922.09
2022-09-15T14:34:21.018Z,99927.72
2022-09-15T14:36:58.279Z,99922.59
2022-09-15T14:39:24.763Z,99921.38
2022-09-15T14:41:51.428Z,99913.47
2022-09-15T14:47:21.766Z,99926.47
2022-09-15T14:49:49.012Z,99924.38
2022-09-15T14:52:27.205Z,99930.00
2022-09-15T14:54:56.781Z,99923.31
2022-09-15T14:57:28.726Z,99921.22
2022-09-15T14:59:59.804Z,99918.56
2022-09-15T15:02:35.624Z,99928.78
2022-09-15T15:05:08.683Z,99922.16
2022-09-15T15:07:37.374Z,99931.41
2022-09-15T15:10:06.087Z,99920.31
2022-09-15T15:12:52.324Z,99921.69
2022-09-15T15:15:18.925Z,99917.88
2022-09-15T15:17:49.383Z,99929.22
2022-09-15T15:20:16.021Z,99921.56
2022-09-15T15:22:43.396Z,99932.63
2022-09-15T15:25:23.740Z,99933.78
2022-09-15T15:27:54.901Z,99932.38
2022-09-15T15:30:35.249Z,99930.78
2022-09-15T15:33:03.705Z,99931.69
2022-09-15T15:35:30.783Z,99928.97
2022-09-15T15:38:03.310Z,99931.69
2022-09-15T15:40:30.095Z,99932.03
2022-09-15T15:43:00.885Z,99929.41
2022-09-15T15:45:29.755Z,99930.66
2022-09-15T15:47:56.572Z,99937.97
2022-09-15T15:50:24.756Z,99929.84
2022-09-15T15:52:52.054Z,99933.25
2022-09-15T15:55:22.789Z,99930.50
2022-09-15T15:57:51.093Z,99931.22
2022-09-15T16:00:21.303Z,99932.34
2022-09-15T16:02:48.284Z,99933.03
2022-09-15T16:05:14.988Z,99940.84
2022-09-15T16:07:42.670Z,99933.38
2022-09-15T16:10:14.653Z,99941.56
2022-09-15T16:12:41.167Z,99947.00
2022-09-15T16:15:15.340Z,99948.59
2022-09-15T16:17:45.980Z,99948.59
2022-09-15T16:20:15.978Z,99945.00
2022-09-15T16:22:43.278Z,99956.69
2022-09-15T16:25:17.812Z,99956.91
2022-09-15T16:27:45.367Z,99952.91
2022-09-15T16:30:14.919Z,99950.31
2022-09-15T16:32:41.505Z,99946.34
2022-09-15T16:35:31.488Z,99947.03
2022-09-15T16:37:57.992Z,99948.94
2022-09-15T16:40:24.631Z,99948.94
2022-09-15T16:42:51.276Z,99952.03
2022-09-15T16:45:23.233Z,99954.75
2022-09-15T16:47:49.727Z,99957.13
2022-09-15T16:50:16.283Z,99950.88
2022-09-15T16:52:42.784Z,99960.19
2022-09-15T16:55:20.441Z,99959.75
2022-09-15T16:57:46.975Z,99954.34
2022-09-15T17:00:13.788Z,99961.69
2022-09-15T17:02:40.357Z,99966.47
2022-09-15T17:05:15.421Z,99962.34
2022-09-15T17:07:42.106Z,99965.75
2022-09-15T17:10:08.650Z,99973.00
2022-09-15T17:12:36.254Z,99977.41
2022-09-15T17:15:02.876Z,99982.16
2022-09-15T17:17:29.311Z,99975.63
2022-09-15T17:19:55.722Z,99983.19
2022-09-15T17:22:23.263Z,99977.97
2022-09-15T17:24:49.723Z,99973.53
2022-09-15T17:27:16.288Z,99982.78
2022-09-15T17:29:42.753Z,99974.84
2022-09-15T17:32:09.219Z,99980.78
2022-09-15T17:34:38.002Z,99978.59
2022-09-15T17:37:04.462Z,99982.19
2022-09-15T17:39:33.537Z,99976.66
2022-09-15T17:41:59.987Z,99980.25
2022-09-15T17:44:26.471Z,99984.41
2022-09-15T17:46:53.159Z,99977.06
2022-09-15T17:49:19.689Z,99985.22
2022-09-15T17:51:46.123Z,99981.69
2022-09-15T17:54:13.279Z,99981.03
2022-09-15T17:56:39.762Z,99980.53
2022-09-15T17:59:06.345Z,99983.03
2022-09-15T18:01:32.937Z,99981.25
2022-09-15T18:03:59.455Z,99980.28
2022-09-15T18:06:25.949Z,99976.28
2022-09-15T18:08:52.524Z,99973.91
2022-09-15T18:11:19.250Z,99973.50
2022-09-15T18:13:45.903Z,99979.78
2022-09-15T18:16:13.761Z,99978.38
2022-09-15T18:18:40.990Z,99976.63
2022-09-15T18:21:09.534Z,99987.69
2022-09-15T18:23:37.505Z,99989.63
2022-09-15T18:26:03.999Z,99994.41
2022-09-15T18:28:30.515Z,99996.00
2022-09-15T18:30:57.195Z,99997.59
2022-09-15T18:33:24.505Z,99995.81
2022-09-15T18:35:52.286Z,99998.53
2022-09-15T18:38:19.232Z,100004.91
2022-09-15T18:40:46.959Z,100000.53
2022-09-15T18:43:13.553Z,99997.97
2022-09-15T18:45:40.569Z,99996.84
2022-09-15T18:48:11.924Z,100009.81
2022-09-15T18:50:39.871Z,100009.69
2022-09-15T18:53:06.516Z,100013.19
2022-09-15T18:55:32.995Z,100017.69
2022-09-15T18:58:01.185Z,100013.50
2022-09-15T19:00:28.676Z,100023.44
2022-09-15T19:02:59.410Z,100022.50
2022-09-15T19:05:27.327Z,100017.88
2022-09-15T19:07:54.036Z,100021.41
2022-09-15T19:10:20.546Z,100026.50
2022-09-15T19:12:47.106Z,100035.94
2022-09-15T19:15:14.055Z,100027.31
2022-09-15T19:17:40.844Z,100025.69
2022-09-15T19:20:08.439Z,100034.31
2022-09-15T19:22:35.292Z,100040.69
2022-09-15T19:25:01.737Z,100037.00
2022-09-15T19:27:28.284Z,100045.63
2022-09-15T19:29:54.829Z,100044.81
2022-09-15T19:32:22.126Z,100044.50
2022-09-15T19:34:50.090Z,100049.47
2022-09-15T19:37:18.945Z,100045.97
2022-09-15T19:39:46.452Z,100044.34
2022-09-15T19:42:13.307Z,100049.31
2022-09-15T19:44:41.110Z,100052.03
2022-09-15T19:47:07.757Z,100053.66
2022-09-15T19:49:34.413Z,100047.28
2022-09-15T19:52:00.961Z,100051.09
2022-09-15T19:54:28.762Z,100053.81
2022-09-15T19:56:56.097Z,100051.41
2022-09-15T19:59:26.289Z,100056.25
2022-09-15T20:01:55.370Z,100055.84
2022-09-15T20:04:21.964Z,100066.72
2022-09-15T20:06:48.632Z,100071.84
2022-09-15T20:09:15.233Z,100080.81
2022-09-15T20:11:41.824Z,100085.63
2022-09-15T20:14:08.362Z,100078.63
2022-09-15T20:16:35.136Z,100089.66
2022-09-15T20:19:03.696Z,100091.75
2022-09-15T20:21:49.418Z,100088.25
2022-09-15T20:24:17.139Z,100096.22
2022-09-15T20:26:43.723Z,100085.81
2022-09-15T20:29:10.462Z,100095.69
2022-09-15T20:31:36.932Z,100088.84
2022-09-15T20:34:03.517Z,100096.81
2022-09-15T20:36:33.152Z,100088.03
2022-09-15T20:39:00.620Z,100099.06
2022-09-15T20:41:28.412Z,100100.81
2022-09-15T20:43:55.187Z,100090.28
2022-09-15T20:46:22.528Z,100097.13
2022-09-15T20:48:50.136Z,100101.59
2022-09-15T20:51:20.156Z,100105.41
2022-09-15T20:53:47.642Z,100098.41
2022-09-15T20:56:14.855Z,100099.81
2022-09-15T20:58:41.642Z,100101.25
2022-09-15T21:01:09.851Z,100096.97
2022-09-15T21:03:37.329Z,100101.41
2022-09-15T21:06:05.379Z,100098.72
2022-09-15T21:08:32.234Z,100099.97
2022-09-15T21:10:59.379Z,100106.81
2022-09-15T21:13:29.993Z,100108.75
2022-09-15T21:15:58.368Z,100110.53
2022-09-15T21:18:25.723Z,100106.19
2022-09-15T21:20:56.319Z,100111.13
2022-09-15T21:23:23.030Z,100113.38
2022-09-15T21:26:01.679Z,100120.41
2022-09-15T21:28:28.760Z,100119.44
2022-09-15T21:31:06.079Z,100123.09
2022-09-15T21:33:32.991Z,100119.06
2022-09-15T21:36:03.529Z,100127.69
2022-09-15T21:38:30.124Z,100128.53
2022-09-15T21:40:56.558Z,100136.00
2022-09-15T21:43:23.089Z,100138.69
2022-09-15T21:45:54.379Z,100130.25
2022-09-15T21:48:21.045Z,100136.97
2022-09-15T21:50:51.389Z,100136.97
2022-09-15T21:53:20.111Z,100138.53
2022-09-15T21:55:52.833Z,100139.97
2022-09-15T21:58:19.971Z,100131.06
2022-09-15T22:00:47.203Z,100139.19
2022-09-15T22:03:14.056Z,100140.78
2022-09-15T22:05:41.015Z,100140.63
2022-09-15T22:08:08.776Z,100145.22
2022-09-15T22:10:35.615Z,100144.28
2022-09-15T22:13:02.117Z,100143.91
2022-09-15T22:15:28.585Z,100142.34
2022-09-15T22:17:55.018Z,100146.16
2022-09-15T22:20:22.410Z,100145.66
2022-09-15T22:22:48.919Z,100141.38
2022-09-15T22:25:19.790Z,100148.38
2022-09-15T22:27:48.227Z,100143.25
2022-09-15T22:30:14.701Z,100149.50
2022-09-15T22:32:41.236Z,100153.31
2022-09-15T22:35:07.846Z,100150.41
2022-09-15T22:37:34.596Z,100157.75
2022-09-15T22:40:01.158Z,100149.13
2022-09-15T22:42:27.911Z,100147.34
2022-09-15T22:44:54.301Z,100141.13
2022-09-15T22:47:20.760Z,100143.00
2022-09-15T22:49:47.196Z,100138.06
2022-09-15T22:52:13.594Z,100140.28
2022-09-15T22:54:40.021Z,100137.09
2022-09-15T22:57:07.157Z,100139.81
2022-09-15T22:59:33.643Z,100145.56
2022-09-15T23:02:00.285Z,100130.84
2022-09-15T23:04:27.118Z,100133.19
2022-09-15T23:06:53.571Z,100140.63
2022-09-15T23:09:19.987Z,100134.03
2022-09-15T23:11:46.410Z,100140.09
2022-09-15T23:14:15.206Z,100141.69
2022-09-15T23:16:42.656Z,100141.06
2022-09-15T23:19:11.304Z,100135.16
2022-09-15T23:21:37.735Z,100140.88
2022-09-15T23:24:04.349Z,100141.69
2022-09-15T23:26:30.929Z,100146.09
2022-09-15T23:28:57.365Z,100147.97
2022-09-15T23:31:23.839Z,100150.00
2022-09-15T23:33:50.610Z,100156.84
2022-09-15T23:36:21.161Z,100159.41
2022-09-15T23:38:48.317Z,100154.38
2022-09-15T23:41:15.802Z,100153.13
2022-09-15T23:43:42.258Z,100154.72
2022-09-15T23:46:08.779Z,100160.16
2022-09-15T23:48:35.429Z,100151.53
2022-09-15T23:51:02.384Z,100154.72
2022-09-15T23:53:29.342Z,100158.84
2022-09-15T23:55:56.109Z,100155.97
2022-09-15T23:58:22.588Z,100157.09
